createdAt,value
2019-03-30T00:01:43.581Z,19.20
2019-03-30T00:04:18.085Z,19.93
2019-03-30T00:06:52.519Z,20.50
2019-03-30T00:09:27.014Z,21.90
2019-03-30T00:12:02.119Z,24.33
2019-03-30T00:14:36.752Z,23.73
2019-03-30T00:17:12.584Z,23.43
2019-03-30T00:19:47.845Z,23.50
2019-03-30T00:22:22.383Z,23.75
2019-03-30T00:24:57.508Z,26.83
2019-03-30T00:27:33.649Z,27.57
2019-03-30T00:30:12.283Z,26.87
2019-03-30T00:32:47.172Z,27.70
2019-03-30T00:35:21.897Z,29.60
2019-03-30T00:37:56.925Z,27.90
2019-03-30T00:40:33.706Z,28.73
2019-03-30T00:43:07.826Z,29.03
2019-03-30T00:45:43.864Z,30.05
2019-03-30T00:48:19.900Z,29.47
2019-03-30T00:50:56.285Z,28.57
2019-03-30T00:53:35.385Z,29.37
2019-03-30T00:56:10.960Z,29.37
2019-03-30T00:58:47.268Z,30.37
2019-03-30T01:01:24.350Z,30.13
2019-03-30T01:04:01.708Z,29.83
2019-03-30T01:06:37.440Z,29.32
2019-03-30T01:09:15.065Z,30.37
2019-03-30T01:11:52.765Z,30.10
2019-03-30T01:14:28.662Z,29.80
2019-03-30T01:17:07.847Z,28.17
2019-03-30T01:19:43.452Z,28.75
2019-03-30T01:22:19.626Z,28.17
2019-03-30T01:25:01.118Z,29.15
2019-03-30T01:27:39.858Z,29.17
2019-03-30T01:30:22.926Z,30.77
2019-03-30T01:32:55.430Z,31.93
2019-03-30T01:35:30.341Z,31.90
2019-03-30T01:38:06.313Z,31.85
2019-03-30T01:40:40.807Z,33.87
2019-03-30T01:43:17.095Z,35.23
2019-03-30T01:45:51.959Z,34.03
2019-03-30T01:48:26.660Z,36.20
2019-03-30T01:51:01.445Z,38.05
2019-03-30T01:53:37.102Z,39.13
2019-03-30T01:56:12.092Z,39.15
2019-03-30T01:58:49.382Z,39.50
2019-03-30T02:01:24.302Z,37.57
2019-03-30T02:03:58.580Z,38.50
2019-03-30T02:06:33.863Z,37.67
2019-03-30T02:09:10.107Z,38.20
2019-03-30T02:11:44.285Z,40.77
2019-03-30T02:14:26.758Z,40.63
2019-03-30T02:17:01.292Z,40.90
2019-03-30T02:19:35.422Z,40.70
2019-03-30T02:22:11.216Z,38.53
2019-03-30T02:24:45.355Z,37.40
2019-03-30T02:32:33.164Z,29.50
2019-03-30T02:37:49.634Z,20.68
2019-03-30T02:40:25.131Z,15.53
2019-03-30T02:42:59.224Z,13.28
2019-03-30T02:45:33.399Z,12.20
2019-03-30T02:48:07.854Z,13.33
2019-03-30T02:50:50.163Z,15.83
2019-03-30T02:53:17.630Z,18.80
2019-03-30T02:55:52.228Z,18.87
2019-03-30T02:58:26.717Z,19.03
2019-03-30T03:01:03.232Z,18.10
2019-03-30T03:03:39.434Z,19.07
2019-03-30T03:06:16.179Z,20.15
2019-03-30T03:08:52.381Z,17.55
2019-03-30T03:11:27.195Z,23.27
2019-03-30T03:14:02.366Z,26.37
2019-03-30T03:19:14.019Z,32.67
2019-03-30T03:24:20.008Z,32.67
2019-03-30T03:26:54.732Z,30.35
2019-03-30T03:29:28.773Z,29.37
2019-03-30T03:32:03.385Z,27.37
2019-03-30T03:34:37.917Z,26.07
2019-03-30T03:37:13.780Z,24.77
2019-03-30T03:39:47.911Z,23.50
2019-03-30T03:42:23.451Z,24.63
2019-03-30T03:44:57.678Z,25.23
2019-03-30T03:47:35.175Z,25.93
2019-03-30T03:50:11.955Z,27.57
2019-03-30T03:52:47.536Z,25.30
2019-03-30T03:55:21.869Z,26.03
2019-03-30T03:57:56.952Z,25.47
2019-03-30T04:00:34.049Z,22.97
2019-03-30T04:03:11.161Z,24.93
2019-03-30T04:05:47.622Z,19.62
2019-03-30T04:08:22.303Z,16.60
2019-03-30T04:10:59.007Z,17.00
2019-03-30T04:13:33.937Z,16.50
2019-03-30T04:16:09.175Z,16.37
2019-03-30T04:18:47.698Z,18.43
2019-03-30T04:21:21.108Z,19.27
2019-03-30T04:24:15.114Z,19.97
2019-03-30T04:26:49.782Z,18.65
2019-03-30T04:29:24.025Z,18.33
2019-03-30T04:31:58.731Z,17.17
2019-03-30T04:34:33.773Z,17.50
2019-03-30T04:37:08.443Z,16.60
2019-03-30T04:39:44.097Z,14.93
2019-03-30T04:42:19.001Z,15.83
2019-03-30T04:44:55.198Z,15.00
2019-03-30T04:47:32.378Z,16.10
2019-03-30T04:50:10.047Z,18.87
2019-03-30T04:52:45.623Z,17.25
2019-03-30T04:55:20.350Z,18.70
2019-03-30T04:57:57.761Z,17.57
2019-03-30T05:00:30.634Z,17.60
2019-03-30T05:03:07.893Z,15.77
2019-03-30T05:05:43.232Z,13.67
2019-03-30T05:08:19.410Z,15.17
2019-03-30T05:10:53.950Z,12.63
2019-03-30T05:13:28.727Z,12.70
2019-03-30T05:16:04.089Z,12.63
2019-03-30T05:18:38.804Z,13.10
2019-03-30T05:21:14.298Z,14.60
2019-03-30T05:23:49.160Z,15.63
2019-03-30T05:26:23.777Z,16.50
2019-03-30T05:28:58.555Z,15.35
2019-03-30T05:31:32.739Z,15.23
2019-03-30T05:34:07.432Z,16.50
2019-03-30T05:36:43.593Z,16.10
2019-03-30T05:39:18.176Z,16.93
2019-03-30T05:41:54.134Z,14.73
2019-03-30T05:44:28.687Z,16.10
2019-03-30T05:47:03.320Z,16.60
2019-03-30T05:49:40.033Z,16.33
2019-03-30T05:52:26.424Z,16.40
2019-03-30T05:54:58.897Z,16.30
2019-03-30T05:57:38.604Z,17.40
2019-03-30T06:00:14.082Z,17.67
2019-03-30T06:02:50.998Z,17.13
2019-03-30T06:05:26.643Z,17.87
2019-03-30T06:08:01.248Z,17.75
2019-03-30T06:10:38.980Z,17.03
2019-03-30T06:13:13.395Z,17.27
2019-03-30T06:15:47.716Z,16.17
2019-03-30T06:18:21.595Z,15.27
2019-03-30T06:20:56.829Z,16.40
2019-03-30T06:23:33.118Z,16.47
2019-03-30T06:26:08.689Z,17.10
2019-03-30T06:28:43.885Z,17.33
2019-03-30T06:31:18.810Z,15.63
2019-03-30T06:34:05.835Z,15.47
2019-03-30T06:36:41.135Z,15.10
2019-03-30T06:39:16.884Z,15.90
2019-03-30T06:41:51.121Z,15.77
2019-03-30T06:44:25.806Z,16.17
2019-03-30T06:47:03.360Z,16.50
2019-03-30T06:49:39.755Z,16.47
2019-03-30T06:52:14.982Z,14.17
2019-03-30T06:54:49.435Z,14.77
2019-03-30T06:57:24.255Z,13.57
2019-03-30T06:59:58.741Z,13.40
2019-03-30T07:02:33.754Z,12.82
2019-03-30T07:05:09.721Z,12.43
2019-03-30T07:07:46.937Z,12.63
2019-03-30T07:10:21.214Z,12.67
2019-03-30T07:12:58.999Z,12.90
2019-03-30T07:15:33.986Z,12.87
2019-03-30T07:18:09.294Z,12.63
2019-03-30T07:20:43.873Z,12.20
2019-03-30T07:23:17.888Z,12.30
2019-03-30T07:25:55.725Z,12.63
2019-03-30T07:28:29.947Z,12.43
2019-03-30T07:31:05.129Z,11.53
2019-03-30T07:33:40.218Z,11.00
2019-03-30T07:36:14.679Z,12.40
2019-03-30T07:38:49.192Z,12.77
2019-03-30T07:41:29.157Z,11.73
2019-03-30T07:44:03.868Z,11.60
2019-03-30T07:46:38.270Z,11.73
2019-03-30T07:49:12.953Z,12.50
2019-03-30T07:51:47.925Z,12.20
2019-03-30T07:54:22.906Z,13.47
2019-03-30T07:57:05.011Z,13.40
2019-03-30T07:59:37.256Z,13.47
2019-03-30T08:02:11.866Z,14.70
2019-03-30T08:04:48.262Z,16.57
2019-03-30T08:07:23.533Z,21.33
2019-03-30T08:09:58.735Z,21.57
2019-03-30T08:12:36.428Z,23.30
2019-03-30T08:15:12.295Z,23.67
2019-03-30T08:17:47.373Z,24.30
2019-03-30T08:20:25.527Z,29.87
2019-03-30T08:23:06.663Z,34.20
2019-03-30T08:25:54.394Z,36.57
2019-03-30T08:28:30.300Z,38.28
2019-03-30T08:31:06.493Z,38.17
2019-03-30T08:33:41.896Z,39.13
2019-03-30T08:36:20.913Z,38.78
2019-03-30T08:38:57.304Z,40.50
2019-03-30T08:41:33.035Z,41.13
2019-03-30T08:44:14.445Z,39.73
2019-03-30T08:46:51.255Z,35.47
2019-03-30T08:49:26.660Z,38.60
2019-03-30T08:52:06.090Z,38.33
2019-03-30T08:57:43.968Z,37.43
2019-03-30T09:00:21.964Z,34.83
2019-03-30T09:02:54.790Z,35.90
2019-03-30T09:05:45.775Z,33.48
2019-03-30T09:11:18.259Z,33.17
2019-03-30T09:13:53.959Z,32.67
2019-03-30T09:16:30.082Z,33.32
2019-03-30T09:19:04.490Z,31.10
2019-03-30T09:21:41.254Z,32.00
2019-03-30T09:24:16.680Z,30.68
2019-03-30T09:26:55.196Z,29.07
2019-03-30T09:29:31.056Z,28.27
2019-03-30T09:32:14.155Z,25.60
2019-03-30T09:34:45.028Z,24.07
2019-03-30T09:37:24.942Z,24.37
2019-03-30T09:40:00.375Z,24.15
2019-03-30T09:42:35.591Z,24.63
2019-03-30T09:45:14.149Z,24.30
2019-03-30T09:47:50.186Z,24.50
2019-03-30T09:50:26.800Z,23.43
2019-03-30T09:53:06.880Z,21.65
2019-03-30T09:55:42.220Z,21.40
2019-03-30T09:58:21.105Z,22.67
2019-03-30T10:00:55.417Z,22.55
2019-03-30T10:03:31.092Z,22.30
2019-03-30T10:06:10.733Z,21.27
2019-03-30T10:08:46.699Z,22.73
2019-03-30T10:11:21.567Z,21.63
2019-03-30T10:13:56.405Z,20.23
2019-03-30T10:16:32.095Z,21.48
2019-03-30T10:19:06.727Z,21.43
2019-03-30T10:21:41.427Z,21.13
2019-03-30T10:24:17.095Z,21.10
2019-03-30T10:26:53.043Z,20.10
2019-03-30T10:29:31.084Z,15.93
2019-03-30T10:32:04.697Z,20.50
2019-03-30T10:34:41.703Z,21.20
2019-03-30T10:37:17.282Z,21.17
2019-03-30T10:39:54.668Z,22.17
2019-03-30T10:42:36.085Z,20.80
2019-03-30T10:45:17.961Z,21.27
2019-03-30T10:47:55.469Z,22.80
2019-03-30T10:50:32.630Z,20.60
2019-03-30T10:53:09.582Z,21.00
2019-03-30T10:55:44.810Z,20.97
2019-03-30T10:58:25.937Z,21.17
2019-03-30T11:01:01.458Z,21.33
2019-03-30T11:03:37.048Z,21.83
2019-03-30T11:06:14.937Z,22.37
2019-03-30T11:08:52.725Z,21.27
2019-03-30T11:11:32.239Z,22.03
2019-03-30T11:14:07.669Z,21.60
2019-03-30T11:16:42.529Z,22.30
2019-03-30T11:19:17.529Z,22.40
2019-03-30T11:21:53.639Z,21.70
2019-03-30T11:24:29.243Z,22.40
2019-03-30T11:27:05.897Z,21.50
2019-03-30T11:29:41.947Z,18.20
2019-03-30T11:32:20.136Z,19.77
2019-03-30T11:34:56.360Z,21.27
2019-03-30T11:37:31.616Z,20.72
2019-03-30T11:40:09.335Z,17.93
2019-03-30T11:42:44.313Z,18.37
2019-03-30T11:45:20.253Z,18.73
2019-03-30T11:47:55.081Z,19.63
2019-03-30T11:50:32.282Z,20.43
2019-03-30T11:53:07.267Z,18.87
2019-03-30T11:55:43.488Z,19.30
2019-03-30T11:58:19.125Z,19.33
2019-03-30T12:00:55.547Z,19.93
2019-03-30T12:03:31.134Z,19.17
2019-03-30T12:06:06.729Z,18.60
2019-03-30T12:08:43.959Z,19.00
2019-03-30T12:11:30.124Z,18.80
2019-03-30T12:14:07.215Z,18.80
2019-03-30T12:16:42.432Z,17.60
2019-03-30T12:19:18.760Z,18.12
2019-03-30T12:21:54.926Z,18.43
2019-03-30T12:24:32.285Z,17.37
2019-03-30T12:27:07.491Z,18.17
2019-03-30T12:29:44.555Z,16.97
2019-03-30T12:32:18.199Z,16.93
2019-03-30T12:34:52.995Z,17.20
2019-03-30T12:37:27.670Z,17.43
2019-03-30T12:40:03.061Z,16.73
2019-03-30T12:42:37.548Z,16.13
2019-03-30T12:45:12.475Z,17.10
2019-03-30T12:47:52.302Z,15.10
2019-03-30T12:50:27.068Z,15.93
2019-03-30T12:53:02.914Z,15.15
2019-03-30T12:58:15.372Z,14.00
2019-03-30T13:00:50.313Z,14.40
2019-03-30T13:03:25.289Z,13.33
2019-03-30T13:06:02.429Z,14.47
2019-03-30T13:08:37.862Z,14.17
2019-03-30T13:11:14.619Z,13.43
2019-03-30T13:13:49.472Z,13.57
2019-03-30T13:16:31.520Z,12.07
2019-03-30T13:19:07.721Z,12.73
2019-03-30T13:21:52.670Z,11.93
2019-03-30T13:24:22.809Z,12.87
2019-03-30T13:26:58.136Z,13.55
2019-03-30T13:29:32.731Z,12.03
2019-03-30T13:32:07.917Z,11.70
2019-03-30T13:34:42.126Z,12.03
2019-03-30T13:37:25.739Z,11.07
2019-03-30T13:40:00.642Z,10.40
2019-03-30T13:42:35.094Z,9.97
2019-03-30T13:45:11.236Z,9.78
2019-03-30T13:47:45.630Z,10.57
2019-03-30T13:50:19.541Z,10.57
2019-03-30T13:52:53.437Z,10.37
2019-03-30T13:55:28.790Z,10.30
2019-03-30T13:58:04.667Z,10.13
2019-03-30T14:00:40.959Z,10.98
2019-03-30T14:03:15.183Z,9.88
2019-03-30T14:05:51.196Z,10.55
2019-03-30T14:08:27.400Z,10.40
2019-03-30T14:11:03.213Z,10.58
2019-03-30T14:13:38.578Z,11.23
2019-03-30T14:16:12.842Z,10.70
2019-03-30T14:18:46.989Z,10.70
2019-03-30T14:21:21.584Z,10.93
2019-03-30T14:23:58.663Z,9.87
2019-03-30T14:26:34.507Z,10.32
2019-03-30T14:29:09.927Z,10.40
2019-03-30T14:31:44.015Z,10.73
2019-03-30T14:34:18.333Z,10.87
2019-03-30T14:36:52.701Z,10.37
2019-03-30T14:39:28.296Z,9.83
2019-03-30T14:42:02.118Z,10.36
2019-03-30T14:44:36.069Z,9.40
2019-03-30T14:47:23.313Z,10.48
2019-03-30T14:49:58.265Z,10.13
2019-03-30T14:52:35.326Z,9.80
2019-03-30T14:55:11.371Z,11.23
2019-03-30T14:57:45.385Z,10.13
2019-03-30T15:00:20.105Z,9.27
2019-03-30T15:02:55.939Z,9.63
2019-03-30T15:05:30.139Z,9.10
2019-03-30T15:08:04.350Z,9.53
2019-03-30T15:10:38.495Z,8.27
2019-03-30T15:13:13.419Z,8.63
2019-03-30T15:15:47.503Z,8.45
2019-03-30T15:18:22.071Z,8.88
2019-03-30T15:20:55.869Z,9.13
2019-03-30T15:23:29.858Z,9.50
2019-03-30T15:26:03.817Z,9.45
2019-03-30T15:28:38.890Z,9.00
2019-03-30T15:31:12.766Z,9.60
2019-03-30T15:33:46.960Z,8.98
2019-03-30T15:36:20.483Z,9.23
2019-03-30T15:38:57.711Z,8.60
2019-03-30T15:41:29.410Z,9.35
2019-03-30T15:44:06.268Z,8.17
2019-03-30T15:46:40.393Z,7.90
2019-03-30T15:49:14.438Z,8.38
2019-03-30T15:51:49.955Z,7.20
2019-03-30T15:54:30.281Z,7.50
2019-03-30T15:57:13.934Z,7.50
2019-03-30T15:59:39.304Z,8.10
2019-03-30T16:02:14.542Z,8.50
2019-03-30T16:04:52.458Z,8.40
2019-03-30T16:07:26.645Z,8.10
2019-03-30T16:10:01.394Z,8.03
2019-03-30T16:12:35.986Z,8.17
2019-03-30T16:15:11.057Z,7.70
2019-03-30T16:17:45.003Z,8.27
2019-03-30T16:20:19.352Z,7.93
2019-03-30T16:22:53.447Z,8.50
2019-03-30T16:25:27.368Z,8.30
2019-03-30T16:28:01.621Z,8.43
2019-03-30T16:30:35.507Z,8.97
2019-03-30T16:33:09.079Z,8.37
2019-03-30T16:35:42.777Z,7.97
2019-03-30T16:38:16.743Z,7.97
2019-03-30T16:40:52.135Z,7.94
2019-03-30T16:43:26.228Z,7.53
2019-03-30T16:46:00.004Z,7.13
2019-03-30T16:48:33.801Z,8.30
2019-03-30T16:51:07.661Z,6.97
2019-03-30T16:53:41.297Z,6.27
2019-03-30T16:56:16.786Z,7.30
2019-03-30T16:58:50.461Z,6.38
2019-03-30T17:01:24.204Z,6.73
2019-03-30T17:03:59.367Z,6.97
2019-03-30T17:06:33.189Z,7.33
2019-03-30T17:09:08.239Z,6.73
2019-03-30T17:11:43.821Z,7.10
2019-03-30T17:14:18.065Z,7.10
2019-03-30T17:16:51.900Z,7.60
2019-03-30T17:19:25.784Z,8.20
2019-03-30T17:22:00.865Z,7.83
2019-03-30T17:24:34.712Z,7.55
2019-03-30T17:27:08.625Z,7.80
2019-03-30T17:29:43.049Z,7.90
2019-03-30T17:32:17.246Z,7.57
2019-03-30T17:34:51.759Z,8.67
2019-03-30T17:37:26.132Z,7.80
2019-03-30T17:40:00.348Z,7.57
2019-03-30T17:42:38.332Z,8.30
2019-03-30T17:45:11.517Z,7.92
2019-03-30T17:47:48.272Z,6.90
2019-03-30T17:50:21.972Z,7.77
2019-03-30T17:52:58.076Z,7.50
2019-03-30T17:55:33.853Z,7.30
2019-03-30T17:58:13.464Z,7.80
2019-03-30T18:00:42.865Z,7.93
2019-03-30T18:03:16.376Z,8.20
2019-03-30T18:05:51.489Z,7.90
2019-03-30T18:08:25.112Z,8.13
2019-03-30T18:10:58.990Z,7.40
2019-03-30T18:13:32.539Z,8.03
2019-03-30T18:16:06.522Z,8.50
2019-03-30T18:18:40.622Z,8.90
2019-03-30T18:21:14.503Z,8.73
2019-03-30T18:23:48.972Z,8.60
2019-03-30T18:26:22.899Z,9.03
2019-03-30T18:28:56.767Z,8.53
2019-03-30T18:31:30.447Z,9.33
2019-03-30T18:34:04.247Z,9.47
2019-03-30T18:36:41.459Z,9.10
2019-03-30T18:39:16.394Z,9.13
2019-03-30T18:41:49.830Z,9.20
2019-03-30T18:44:23.822Z,9.40
2019-03-30T18:46:57.686Z,9.20
2019-03-30T18:49:31.455Z,9.07
2019-03-30T18:52:06.351Z,10.63
2019-03-30T18:54:40.638Z,9.67
2019-03-30T18:57:15.057Z,9.17
2019-03-30T18:59:49.570Z,9.33
2019-03-30T19:02:23.638Z,10.70
2019-03-30T19:04:59.236Z,8.93
2019-03-30T19:07:32.717Z,9.43
2019-03-30T19:10:07.838Z,10.30
2019-03-30T19:12:42.211Z,9.20
2019-03-30T19:15:16.397Z,9.58
2019-03-30T19:17:50.337Z,10.60
2019-03-30T19:20:24.007Z,10.17
2019-03-30T19:22:59.158Z,10.63
2019-03-30T19:25:32.821Z,9.93
2019-03-30T19:28:06.551Z,9.93
2019-03-30T19:30:42.430Z,10.53
2019-03-30T19:33:16.124Z,10.70
2019-03-30T19:35:49.928Z,9.60
2019-03-30T19:38:24.828Z,9.80
2019-03-30T19:40:58.868Z,10.00
2019-03-30T19:43:32.970Z,9.57
2019-03-30T19:46:06.768Z,10.33
2019-03-30T19:48:40.471Z,9.30
2019-03-30T19:51:14.063Z,9.53
2019-03-30T19:53:47.825Z,9.50
2019-03-30T19:56:21.106Z,9.73
2019-03-30T19:59:09.771Z,9.83
2019-03-30T20:01:32.150Z,9.53
2019-03-30T20:04:07.793Z,9.50
2019-03-30T20:06:40.937Z,9.20
2019-03-30T20:09:14.522Z,8.73
2019-03-30T20:11:49.809Z,9.30
2019-03-30T20:14:23.471Z,9.13
2019-03-30T20:16:57.437Z,9.73
2019-03-30T20:19:32.466Z,9.15
2019-03-30T20:22:06.359Z,9.70
2019-03-30T20:24:40.784Z,9.20
2019-03-30T20:27:14.333Z,9.13
2019-03-30T20:29:48.442Z,8.97
2019-03-30T20:32:22.205Z,9.00
2019-03-30T20:34:55.885Z,8.90
2019-03-30T20:37:31.103Z,9.53
2019-03-30T20:40:10.385Z,9.40
2019-03-30T20:42:44.431Z,9.70
2019-03-30T20:45:19.193Z,9.77
2019-03-30T20:47:53.885Z,10.13
2019-03-30T20:50:27.570Z,9.73
2019-03-30T20:53:02.370Z,9.70
2019-03-30T20:55:35.927Z,9.97
2019-03-30T20:58:11.143Z,9.80
2019-03-30T21:00:44.702Z,9.83
2019-03-30T21:03:17.956Z,9.70
2019-03-30T21:05:51.561Z,10.00
2019-03-30T21:08:26.412Z,10.13
2019-03-30T21:10:59.913Z,9.80
2019-03-30T21:13:33.365Z,10.00
2019-03-30T21:16:07.069Z,9.63
2019-03-30T21:18:42.272Z,9.80
2019-03-30T21:21:16.862Z,9.28
2019-03-30T21:23:50.660Z,9.77
2019-03-30T21:26:24.425Z,9.70
2019-03-30T21:28:58.355Z,9.67
2019-03-30T21:31:31.779Z,10.40
2019-03-30T21:34:05.679Z,9.17
2019-03-30T21:36:39.541Z,9.83
2019-03-30T21:39:13.545Z,9.70
2019-03-30T21:41:47.040Z,9.50
2019-03-30T21:44:22.319Z,9.17
2019-03-30T21:46:56.334Z,9.90
2019-03-30T21:49:31.134Z,9.80
2019-03-30T21:52:04.925Z,9.98
2019-03-30T21:54:38.740Z,10.03
2019-03-30T21:57:12.457Z,10.50
2019-03-30T21:59:47.263Z,10.70
2019-03-30T22:02:21.241Z,9.60
2019-03-30T22:04:54.910Z,9.40
2019-03-30T22:07:28.959Z,10.17
2019-03-30T22:10:03.467Z,9.60
2019-03-30T22:12:37.413Z,10.33
2019-03-30T22:15:12.111Z,9.93
2019-03-30T22:17:45.636Z,10.47
2019-03-30T22:20:21.265Z,10.57
2019-03-30T22:22:53.742Z,10.90
2019-03-30T22:25:28.506Z,11.13
2019-03-30T22:28:02.259Z,10.88
2019-03-30T22:30:35.833Z,10.87
2019-03-30T22:33:09.606Z,11.07
2019-03-30T22:35:43.348Z,10.60
2019-03-30T22:38:17.226Z,11.30
2019-03-30T22:40:50.881Z,10.87
2019-03-30T22:43:24.380Z,11.20
2019-03-30T22:45:58.647Z,11.28
2019-03-30T22:48:32.662Z,11.43
2019-03-30T22:51:06.572Z,12.47
2019-03-30T22:53:40.053Z,10.97
2019-03-30T22:56:13.466Z,11.70
2019-03-30T22:58:47.671Z,11.97
2019-03-30T23:01:21.087Z,13.13
2019-03-30T23:03:54.945Z,12.37
2019-03-30T23:06:28.474Z,12.13
2019-03-30T23:09:01.972Z,12.50
2019-03-30T23:11:36.969Z,12.57
2019-03-30T23:14:18.360Z,11.67
2019-03-30T23:16:52.121Z,13.80
2019-03-30T23:19:25.874Z,12.83
2019-03-30T23:21:59.840Z,12.53
2019-03-30T23:24:33.527Z,12.53
2019-03-30T23:27:07.366Z,13.33
2019-03-30T23:29:41.011Z,14.20
2019-03-30T23:32:14.641Z,13.03
2019-03-30T23:34:48.578Z,13.50
2019-03-30T23:37:22.230Z,13.95
2019-03-30T23:39:56.869Z,14.30
2019-03-30T23:42:30.356Z,15.13
2019-03-30T23:45:04.337Z,16.23
2019-03-30T23:47:39.186Z,14.53
2019-03-30T23:50:13.254Z,15.53
2019-03-30T23:52:48.411Z,15.20
2019-03-30T23:55:22.520Z,14.85
2019-03-30T23:57:57.572Z,15.47
